sensor_id;sensor_type;location;lat;lon;timestamp;noise_LAeq;noise_LA_min;noise_LA_max;noise_LA01;noise_LA95
41704;Laerm;861;48.808;9.006;2023-08-20T00:00:35;34.32;33.09;35.56;;
41704;Laerm;861;48.808;9.006;2023-08-20T00:03:13;34.31;32.91;38.99;;
41704;Laerm;861;48.808;9.006;2023-08-20T00:05:41;34.35;32.94;35.58;;
41704;Laerm;861;48.808;9.006;2023-08-20T00:08:08;34.33;32.88;35.43;;
41704;Laerm;861;48.808;9.006;2023-08-20T00:10:34;34.34;32.85;35.70;;
41704;Laerm;861;48.808;9.006;2023-08-20T00:13:01;34.37;33.01;36.27;;
41704;Laerm;861;48.808;9.006;2023-08-20T00:15:28;34.44;33.01;36.26;;
41704;Laerm;861;48.808;9.006;2023-08-20T00:17:56;34.34;32.94;35.78;;
41704;Laerm;861;48.808;9.006;2023-08-20T00:20:25;34.34;33.15;35.40;;
41704;Laerm;861;48.808;9.006;2023-08-20T00:22:52;34.38;32.99;36.31;;
41704;Laerm;861;48.808;9.006;2023-08-20T00:25:19;34.34;33.11;35.60;;
41704;Laerm;861;48.808;9.006;2023-08-20T00:27:45;34.36;33.11;35.99;;
41704;Laerm;861;48.808;9.006;2023-08-20T00:30:13;34.34;33.13;35.82;;
41704;Laerm;861;48.808;9.006;2023-08-20T00:32:41;34.33;33.09;35.57;;
41704;Laerm;861;48.808;9.006;2023-08-20T00:35:08;34.34;33.03;35.53;;
41704;Laerm;861;48.808;9.006;2023-08-20T00:37:34;34.33;32.78;35.85;;
41704;Laerm;861;48.808;9.006;2023-08-20T00:40:02;34.34;33.02;35.64;;
41704;Laerm;861;48.808;9.006;2023-08-20T00:42:32;34.31;33.00;35.94;;
41704;Laerm;861;48.808;9.006;2023-08-20T00:44:59;34.28;32.94;35.45;;
41704;Laerm;861;48.808;9.006;2023-08-20T00:47:27;34.32;33.07;35.99;;
41704;Laerm;861;48.808;9.006;2023-08-20T00:49:54;34.30;32.93;35.62;;
41704;Laerm;861;48.808;9.006;2023-08-20T00:52:22;34.29;33.08;35.43;;
41704;Laerm;861;48.808;9.006;2023-08-20T00:54:49;34.29;32.90;35.40;;
41704;Laerm;861;48.808;9.006;2023-08-20T00:57:19;34.27;32.95;35.51;;
41704;Laerm;861;48.808;9.006;2023-08-20T00:59:50;34.30;33.00;35.50;;
41704;Laerm;861;48.808;9.006;2023-08-20T01:02:20;34.29;33.05;35.46;;
41704;Laerm;861;48.808;9.006;2023-08-20T01:04:50;34.28;32.96;36.11;;
41704;Laerm;861;48.808;9.006;2023-08-20T01:10:57;34.28;32.92;35.43;;
41704;Laerm;861;48.808;9.006;2023-08-20T01:13:25;34.28;33.00;35.54;;
41704;Laerm;861;48.808;9.006;2023-08-20T01:15:52;34.27;32.71;35.77;;
41704;Laerm;861;48.808;9.006;2023-08-20T01:18:18;34.26;33.07;36.29;;
41704;Laerm;861;48.808;9.006;2023-08-20T01:21:15;34.20;32.92;36.50;;
41704;Laerm;861;48.808;9.006;2023-08-20T01:24:22;34.22;32.87;36.72;;
41704;Laerm;861;48.808;9.006;2023-08-20T01:30:05;34.19;32.90;35.46;;
41704;Laerm;861;48.808;9.006;2023-08-20T01:32:35;34.19;32.83;35.67;;
41704;Laerm;861;48.808;9.006;2023-08-20T01:35:04;34.18;33.02;35.54;;
41704;Laerm;861;48.808;9.006;2023-08-20T01:37:31;34.20;32.85;39.52;;
41704;Laerm;861;48.808;9.006;2023-08-20T01:39:57;34.20;32.76;35.88;;
41704;Laerm;861;48.808;9.006;2023-08-20T01:42:24;34.15;32.80;35.42;;
41704;Laerm;861;48.808;9.006;2023-08-20T01:44:50;34.12;32.66;35.21;;
41704;Laerm;861;48.808;9.006;2023-08-20T01:47:17;34.14;32.87;35.33;;
41704;Laerm;861;48.808;9.006;2023-08-20T01:49:43;34.15;32.77;35.71;;
41704;Laerm;861;48.808;9.006;2023-08-20T01:52:10;34.15;32.77;35.43;;
41704;Laerm;861;48.808;9.006;2023-08-20T01:54:36;34.14;32.63;36.21;;
41704;Laerm;861;48.808;9.006;2023-08-20T01:57:03;34.11;32.84;35.43;;
41704;Laerm;861;48.808;9.006;2023-08-20T01:59:30;34.10;32.57;35.28;;
41704;Laerm;861;48.808;9.006;2023-08-20T02:01:56;34.10;32.80;35.23;;
41704;Laerm;861;48.808;9.006;2023-08-20T02:04:23;34.10;32.77;35.26;;
41704;Laerm;861;48.808;9.006;2023-08-20T02:06:50;34.11;32.49;35.41;;
41704;Laerm;861;48.808;9.006;2023-08-20T02:09:16;34.10;32.97;35.41;;
41704;Laerm;861;48.808;9.006;2023-08-20T02:11:43;34.09;32.77;35.32;;
41704;Laerm;861;48.808;9.006;2023-08-20T02:14:10;34.07;32.74;38.80;;
41704;Laerm;861;48.808;9.006;2023-08-20T02:16:36;34.06;32.66;35.23;;
41704;Laerm;861;48.808;9.006;2023-08-20T02:19:03;34.06;32.84;35.25;;
41704;Laerm;861;48.808;9.006;2023-08-20T02:21:32;34.30;32.52;58.49;;
41704;Laerm;861;48.808;9.006;2023-08-20T02:23:58;33.98;32.65;35.22;;
41704;Laerm;861;48.808;9.006;2023-08-20T02:26:25;33.96;32.55;47.58;;
41704;Laerm;861;48.808;9.006;2023-08-20T02:28:52;33.88;32.60;35.24;;
41704;Laerm;861;48.808;9.006;2023-08-20T02:31:19;33.83;32.25;41.02;;
41704;Laerm;861;48.808;9.006;2023-08-20T02:33:45;33.84;32.35;34.94;;
41704;Laerm;861;48.808;9.006;2023-08-20T02:36:12;33.81;32.53;35.00;;
41704;Laerm;861;48.808;9.006;2023-08-20T02:38:38;33.80;32.56;34.89;;
41704;Laerm;861;48.808;9.006;2023-08-20T02:41:05;33.74;32.40;34.87;;
41704;Laerm;861;48.808;9.006;2023-08-20T02:43:32;33.83;32.08;54.85;;
41704;Laerm;861;48.808;9.006;2023-08-20T02:45:58;33.61;32.26;50.38;;
41704;Laerm;861;48.808;9.006;2023-08-20T02:48:25;33.54;32.23;35.43;;
41704;Laerm;861;48.808;9.006;2023-08-20T02:50:56;33.71;32.21;51.69;;
41704;Laerm;861;48.808;9.006;2023-08-20T02:53:23;33.61;32.22;35.53;;
41704;Laerm;861;48.808;9.006;2023-08-20T02:55:50;33.60;32.26;36.01;;
41704;Laerm;861;48.808;9.006;2023-08-20T02:58:16;33.66;32.47;35.09;;
41704;Laerm;861;48.808;9.006;2023-08-20T03:00:43;33.67;32.23;35.08;;
41704;Laerm;861;48.808;9.006;2023-08-20T03:03:12;33.66;31.96;37.61;;
41704;Laerm;861;48.808;9.006;2023-08-20T03:05:38;33.63;32.20;38.61;;
41704;Laerm;861;48.808;9.006;2023-08-20T03:08:06;33.68;32.28;39.04;;
41704;Laerm;861;48.808;9.006;2023-08-20T03:10:34;33.60;32.24;35.17;;
41704;Laerm;861;48.808;9.006;2023-08-20T03:13:04;33.59;32.17;35.21;;
41704;Laerm;861;48.808;9.006;2023-08-20T03:15:31;33.59;32.13;34.96;;
41704;Laerm;861;48.808;9.006;2023-08-20T03:17:57;33.62;32.22;39.20;;
41704;Laerm;861;48.808;9.006;2023-08-20T03:20:24;33.62;32.17;41.00;;
41704;Laerm;861;48.808;9.006;2023-08-20T03:22:51;33.51;32.09;45.64;;
41704;Laerm;861;48.808;9.006;2023-08-20T03:25:17;33.46;31.96;37.71;;
41704;Laerm;861;48.808;9.006;2023-08-20T03:27:44;33.50;32.28;38.97;;
41704;Laerm;861;48.808;9.006;2023-08-20T03:30:11;33.37;31.89;37.07;;
41704;Laerm;861;48.808;9.006;2023-08-20T03:32:38;33.35;31.99;36.94;;
41704;Laerm;861;48.808;9.006;2023-08-20T03:35:06;33.31;32.10;36.94;;
41704;Laerm;861;48.808;9.006;2023-08-20T03:37:33;33.29;31.98;37.10;;
41704;Laerm;861;48.808;9.006;2023-08-20T03:39:59;33.24;31.88;36.98;;
41704;Laerm;861;48.808;9.006;2023-08-20T03:42:26;33.31;32.13;35.22;;
41704;Laerm;861;48.808;9.006;2023-08-20T03:44:53;33.34;32.04;34.77;;
41704;Laerm;861;48.808;9.006;2023-08-20T03:47:19;33.36;32.11;35.80;;
41704;Laerm;861;48.808;9.006;2023-08-20T03:49:47;33.39;31.77;35.89;;
41704;Laerm;861;48.808;9.006;2023-08-20T03:52:15;33.24;31.99;35.67;;
41704;Laerm;861;48.808;9.006;2023-08-20T03:54:43;33.21;32.09;36.93;;
41704;Laerm;861;48.808;9.006;2023-08-20T03:57:10;33.27;31.83;37.62;;
41704;Laerm;861;48.808;9.006;2023-08-20T03:59:36;33.33;31.91;37.40;;
41704;Laerm;861;48.808;9.006;2023-08-20T04:02:03;33.31;31.84;35.61;;
41704;Laerm;861;48.808;9.006;2023-08-20T04:04:30;33.26;31.96;35.16;;
41704;Laerm;861;48.808;9.006;2023-08-20T04:06:56;33.24;32.00;35.26;;
41704;Laerm;861;48.808;9.006;2023-08-20T04:09:23;33.12;31.92;37.02;;
41704;Laerm;861;48.808;9.006;2023-08-20T04:11:49;32.98;31.69;40.58;;
41704;Laerm;861;48.808;9.006;2023-08-20T04:14:16;33.22;31.51;58.02;;
41704;Laerm;861;48.808;9.006;2023-08-20T04:16:42;32.85;31.43;38.31;;
41704;Laerm;861;48.808;9.006;2023-08-20T04:19:09;32.93;31.61;38.17;;
41704;Laerm;861;48.808;9.006;2023-08-20T04:21:36;32.98;31.38;37.94;;
41704;Laerm;861;48.808;9.006;2023-08-20T04:24:02;32.99;31.40;36.49;;
41704;Laerm;861;48.808;9.006;2023-08-20T04:26:29;33.00;31.72;36.05;;
41704;Laerm;861;48.808;9.006;2023-08-20T04:28:56;33.02;31.70;36.12;;
41704;Laerm;861;48.808;9.006;2023-08-20T04:31:22;33.01;31.72;38.26;;
41704;Laerm;861;48.808;9.006;2023-08-20T04:33:49;33.00;31.64;36.77;;
41704;Laerm;861;48.808;9.006;2023-08-20T04:36:16;33.04;31.58;36.44;;
41704;Laerm;861;48.808;9.006;2023-08-20T04:38:43;33.09;31.79;35.67;;
41704;Laerm;861;48.808;9.006;2023-08-20T04:41:09;33.15;31.58;36.84;;
41704;Laerm;861;48.808;9.006;2023-08-20T04:43:36;33.17;31.82;37.16;;
41704;Laerm;861;48.808;9.006;2023-08-20T04:46:02;33.17;31.77;35.95;;
41704;Laerm;861;48.808;9.006;2023-08-20T04:48:29;33.14;31.89;36.77;;
41704;Laerm;861;48.808;9.006;2023-08-20T04:50:55;33.15;31.70;35.71;;
41704;Laerm;861;48.808;9.006;2023-08-20T04:53:22;33.18;31.71;35.59;;
41704;Laerm;861;48.808;9.006;2023-08-20T04:55:48;33.18;31.86;35.73;;
41704;Laerm;861;48.808;9.006;2023-08-20T04:58:15;33.15;31.82;36.58;;
41704;Laerm;861;48.808;9.006;2023-08-20T05:00:42;33.13;31.94;37.21;;
41704;Laerm;861;48.808;9.006;2023-08-20T05:03:08;33.14;31.78;37.04;;
41704;Laerm;861;48.808;9.006;2023-08-20T05:05:35;33.19;31.75;37.00;;
41704;Laerm;861;48.808;9.006;2023-08-20T05:08:02;33.31;32.14;36.45;;
41704;Laerm;861;48.808;9.006;2023-08-20T05:10:28;33.34;31.88;36.97;;
41704;Laerm;861;48.808;9.006;2023-08-20T05:12:55;33.43;32.15;35.45;;
41704;Laerm;861;48.808;9.006;2023-08-20T05:15:21;33.60;32.14;35.10;;
41704;Laerm;861;48.808;9.006;2023-08-20T05:17:48;33.62;32.27;34.98;;
41704;Laerm;861;48.808;9.006;2023-08-20T05:20:15;33.69;32.46;38.41;;
41704;Laerm;861;48.808;9.006;2023-08-20T05:22:42;33.59;32.23;34.74;;
41704;Laerm;861;48.808;9.006;2023-08-20T05:25:08;33.60;32.06;35.04;;
41704;Laerm;861;48.808;9.006;2023-08-20T05:27:35;33.61;32.35;35.90;;
41704;Laerm;861;48.808;9.006;2023-08-20T05:30:02;33.64;32.38;34.92;;
41704;Laerm;861;48.808;9.006;2023-08-20T05:32:29;33.65;32.27;34.85;;
41704;Laerm;861;48.808;9.006;2023-08-20T05:34:56;33.70;32.44;35.17;;
41704;Laerm;861;48.808;9.006;2023-08-20T05:37:22;33.71;32.39;34.89;;
41704;Laerm;861;48.808;9.006;2023-08-20T05:39:49;33.76;32.33;35.08;;
41704;Laerm;861;48.808;9.006;2023-08-20T05:42:16;33.86;32.48;45.54;;
41704;Laerm;861;48.808;9.006;2023-08-20T05:44:43;33.86;32.67;35.06;;
41704;Laerm;861;48.808;9.006;2023-08-20T05:47:09;33.98;32.54;35.19;;
41704;Laerm;861;48.808;9.006;2023-08-20T05:49:36;33.97;32.77;35.31;;
41704;Laerm;861;48.808;9.006;2023-08-20T05:52:03;34.00;32.74;35.32;;
41704;Laerm;861;48.808;9.006;2023-08-20T05:54:30;34.02;32.59;35.12;;
41704;Laerm;861;48.808;9.006;2023-08-20T05:56:58;34.10;32.63;35.60;;
41704;Laerm;861;48.808;9.006;2023-08-20T05:59:25;34.15;32.85;35.61;;
41704;Laerm;861;48.808;9.006;2023-08-20T06:01:54;34.17;33.02;35.45;;
41704;Laerm;861;48.808;9.006;2023-08-20T06:04:21;34.19;32.76;35.41;;
41704;Laerm;861;48.808;9.006;2023-08-20T06:06:48;34.20;32.72;35.38;;
41704;Laerm;861;48.808;9.006;2023-08-20T06:09:15;34.20;32.84;35.48;;
41704;Laerm;861;48.808;9.006;2023-08-20T06:11:41;34.21;32.98;42.87;;
41704;Laerm;861;48.808;9.006;2023-08-20T06:14:08;34.20;33.01;35.61;;
41704;Laerm;861;48.808;9.006;2023-08-20T06:16:34;34.17;32.79;35.54;;
41704;Laerm;861;48.808;9.006;2023-08-20T06:19:01;34.18;32.66;35.37;;
41704;Laerm;861;48.808;9.006;2023-08-20T06:21:28;34.18;32.71;36.86;;
41704;Laerm;861;48.808;9.006;2023-08-20T06:23:54;34.22;33.00;35.32;;
41704;Laerm;861;48.808;9.006;2023-08-20T06:26:21;34.26;32.96;35.51;;
41704;Laerm;861;48.808;9.006;2023-08-20T06:28:47;34.39;32.82;41.88;;
41704;Laerm;861;48.808;9.006;2023-08-20T06:31:14;34.37;32.91;40.62;;
41704;Laerm;861;48.808;9.006;2023-08-20T06:33:40;34.37;32.93;40.05;;
41704;Laerm;861;48.808;9.006;2023-08-20T06:36:07;34.34;32.90;37.57;;
41704;Laerm;861;48.808;9.006;2023-08-20T06:38:33;34.35;33.07;35.53;;
41704;Laerm;861;48.808;9.006;2023-08-20T06:41:00;34.35;33.09;35.69;;
41704;Laerm;861;48.808;9.006;2023-08-20T06:43:27;34.34;33.01;35.92;;
41704;Laerm;861;48.808;9.006;2023-08-20T06:45:53;34.38;33.08;37.10;;
41704;Laerm;861;48.808;9.006;2023-08-20T06:48:20;34.40;33.25;41.60;;
41704;Laerm;861;48.808;9.006;2023-08-20T06:50:48;34.41;33.18;46.11;;
41704;Laerm;861;48.808;9.006;2023-08-20T06:53:15;34.43;33.16;49.83;;
41704;Laerm;861;48.808;9.006;2023-08-20T06:55:43;34.42;33.02;49.80;;
41704;Laerm;861;48.808;9.006;2023-08-20T06:58:09;34.38;33.00;40.01;;
41704;Laerm;861;48.808;9.006;2023-08-20T07:00:36;34.37;32.79;36.50;;
41704;Laerm;861;48.808;9.006;2023-08-20T07:03:04;34.36;32.92;35.71;;
41704;Laerm;861;48.808;9.006;2023-08-20T07:05:30;34.42;33.16;48.60;;
41704;Laerm;861;48.808;9.006;2023-08-20T07:07:57;34.39;32.90;47.48;;
41704;Laerm;861;48.808;9.006;2023-08-20T07:10:23;34.42;32.92;48.84;;
41704;Laerm;861;48.808;9.006;2023-08-20T07:12:50;34.40;33.05;48.86;;
41704;Laerm;861;48.808;9.006;2023-08-20T07:15:16;34.40;32.94;48.67;;
41704;Laerm;861;48.808;9.006;2023-08-20T07:17:43;34.42;33.11;48.58;;
41704;Laerm;861;48.808;9.006;2023-08-20T07:20:10;34.41;32.96;48.96;;
41704;Laerm;861;48.808;9.006;2023-08-20T07:22:36;34.45;33.02;49.01;;
41704;Laerm;861;48.808;9.006;2023-08-20T07:25:03;34.43;33.05;47.28;;
41704;Laerm;861;48.808;9.006;2023-08-20T07:27:30;34.44;32.93;44.44;;
41704;Laerm;861;48.808;9.006;2023-08-20T07:29:56;34.42;33.09;35.52;;
41704;Laerm;861;48.808;9.006;2023-08-20T07:32:23;34.41;33.10;35.71;;
41704;Laerm;861;48.808;9.006;2023-08-20T07:34:50;34.41;32.87;38.26;;
41704;Laerm;861;48.808;9.006;2023-08-20T07:37:17;34.40;33.18;35.77;;
41704;Laerm;861;48.808;9.006;2023-08-20T07:39:43;34.40;33.16;35.66;;
41704;Laerm;861;48.808;9.006;2023-08-20T07:42:10;34.42;33.14;35.58;;
41704;Laerm;861;48.808;9.006;2023-08-20T07:44:38;34.43;33.16;35.58;;
41704;Laerm;861;48.808;9.006;2023-08-20T07:47:05;34.43;33.17;35.61;;
41704;Laerm;861;48.808;9.006;2023-08-20T07:49:31;34.44;32.93;35.62;;
41704;Laerm;861;48.808;9.006;2023-08-20T07:51:58;34.46;33.22;35.62;;
41704;Laerm;861;48.808;9.006;2023-08-20T07:54:24;34.49;33.03;35.62;;
41704;Laerm;861;48.808;9.006;2023-08-20T07:56:51;34.50;33.39;35.78;;
41704;Laerm;861;48.808;9.006;2023-08-20T07:59:17;34.51;32.84;35.74;;
41704;Laerm;861;48.808;9.006;2023-08-20T08:01:44;34.52;33.32;35.65;;
41704;Laerm;861;48.808;9.006;2023-08-20T08:04:10;34.48;33.22;35.76;;
41704;Laerm;861;48.808;9.006;2023-08-20T08:06:37;34.49;33.12;35.73;;
41704;Laerm;861;48.808;9.006;2023-08-20T08:09:26;34.50;33.24;35.73;;
41704;Laerm;861;48.808;9.006;2023-08-20T08:11:53;34.50;33.14;35.66;;
41704;Laerm;861;48.808;9.006;2023-08-20T08:14:20;34.55;33.24;35.77;;
41704;Laerm;861;48.808;9.006;2023-08-20T08:16:48;34.58;33.30;35.79;;
41704;Laerm;861;48.808;9.006;2023-08-20T08:19:15;34.59;33.30;35.82;;
41704;Laerm;861;48.808;9.006;2023-08-20T08:21:44;34.64;33.39;35.95;;
41704;Laerm;861;48.808;9.006;2023-08-20T08:24:12;34.62;33.12;35.99;;
41704;Laerm;861;48.808;9.006;2023-08-20T08:26:40;34.63;33.31;35.80;;
41704;Laerm;861;48.808;9.006;2023-08-20T08:29:09;34.70;33.39;35.90;;
41704;Laerm;861;48.808;9.006;2023-08-20T08:31:36;34.66;33.41;35.93;;
41704;Laerm;861;48.808;9.006;2023-08-20T08:34:03;34.69;33.54;35.94;;
41704;Laerm;861;48.808;9.006;2023-08-20T08:36:30;34.76;33.47;35.93;;
41704;Laerm;861;48.808;9.006;2023-08-20T08:38:56;34.84;33.65;36.02;;
41704;Laerm;861;48.808;9.006;2023-08-20T08:41:25;34.83;33.35;36.03;;
41704;Laerm;861;48.808;9.006;2023-08-20T08:43:53;34.77;33.46;44.20;;
41704;Laerm;861;48.808;9.006;2023-08-20T08:46:23;34.72;33.47;35.99;;
41704;Laerm;861;48.808;9.006;2023-08-20T08:48:53;34.74;33.17;35.98;;
41704;Laerm;861;48.808;9.006;2023-08-20T08:51:20;34.79;33.47;36.04;;
41704;Laerm;861;48.808;9.006;2023-08-20T08:53:47;34.80;33.33;36.01;;
41704;Laerm;861;48.808;9.006;2023-08-20T08:56:14;34.87;33.69;40.87;;
41704;Laerm;861;48.808;9.006;2023-08-20T08:58:41;34.97;33.47;43.75;;
41704;Laerm;861;48.808;9.006;2023-08-20T09:01:07;34.96;33.46;41.78;;
41704;Laerm;861;48.808;9.006;2023-08-20T09:03:34;34.89;33.39;36.26;;
41704;Laerm;861;48.808;9.006;2023-08-20T09:06:08;34.90;33.67;36.33;;
41704;Laerm;861;48.808;9.006;2023-08-20T09:08:35;34.97;33.51;36.16;;
41704;Laerm;861;48.808;9.006;2023-08-20T09:11:03;35.04;33.63;41.42;;
41704;Laerm;861;48.808;9.006;2023-08-20T09:13:42;35.21;34.03;40.15;;
41704;Laerm;861;48.808;9.006;2023-08-20T09:16:12;35.25;33.98;38.34;;
41704;Laerm;861;48.808;9.006;2023-08-20T09:18:41;35.27;33.90;37.81;;
41704;Laerm;861;48.808;9.006;2023-08-20T09:21:12;35.57;34.27;36.86;;
41704;Laerm;861;48.808;9.006;2023-08-20T09:23:40;35.92;34.48;37.33;;
41704;Laerm;861;48.808;9.006;2023-08-20T09:26:08;36.20;34.78;37.34;;
41704;Laerm;861;48.808;9.006;2023-08-20T09:28:47;36.36;35.06;37.61;;
41704;Laerm;861;48.808;9.006;2023-08-20T09:31:15;36.58;35.02;37.87;;
41704;Laerm;861;48.808;9.006;2023-08-20T09:33:55;36.74;35.46;38.02;;
41704;Laerm;861;48.808;9.006;2023-08-20T09:36:35;36.91;35.53;38.04;;
41704;Laerm;861;48.808;9.006;2023-08-20T09:39:03;37.07;35.76;38.38;;
41704;Laerm;861;48.808;9.006;2023-08-20T09:41:33;37.21;35.86;38.38;;
41704;Laerm;861;48.808;9.006;2023-08-20T09:44:02;37.21;35.76;38.42;;
41704;Laerm;861;48.808;9.006;2023-08-20T09:46:35;37.32;35.99;38.44;;
41704;Laerm;861;48.808;9.006;2023-08-20T09:49:04;37.23;35.92;38.40;;
41704;Laerm;861;48.808;9.006;2023-08-20T09:51:37;37.44;36.11;38.74;;
41704;Laerm;861;48.808;9.006;2023-08-20T09:57:39;37.66;36.15;38.86;;
41704;Laerm;861;48.808;9.006;2023-08-20T10:00:10;37.62;36.50;39.14;;
41704;Laerm;861;48.808;9.006;2023-08-20T10:02:42;37.63;36.14;38.97;;
41704;Laerm;861;48.808;9.006;2023-08-20T10:05:12;37.70;36.28;38.85;;
41704;Laerm;861;48.808;9.006;2023-08-20T10:07:40;37.63;36.33;38.93;;
41704;Laerm;861;48.808;9.006;2023-08-20T10:10:10;37.70;36.29;39.07;;
41704;Laerm;861;48.808;9.006;2023-08-20T10:12:41;37.84;36.41;39.16;;
41704;Laerm;861;48.808;9.006;2023-08-20T10:15:13;37.88;36.44;39.11;;
41704;Laerm;861;48.808;9.006;2023-08-20T10:17:45;37.95;36.45;39.15;;
41704;Laerm;861;48.808;9.006;2023-08-20T10:20:15;37.97;36.59;39.10;;
41704;Laerm;861;48.808;9.006;2023-08-20T10:22:49;37.93;36.63;39.26;;
41704;Laerm;861;48.808;9.006;2023-08-20T10:25:25;37.91;36.48;39.19;;
41704;Laerm;861;48.808;9.006;2023-08-20T10:27:54;37.92;36.53;39.05;;
41704;Laerm;861;48.808;9.006;2023-08-20T10:30:36;37.97;36.37;39.15;;
41704;Laerm;861;48.808;9.006;2023-08-20T10:33:03;38.01;36.74;39.09;;
41704;Laerm;861;48.808;9.006;2023-08-20T10:35:48;38.00;36.61;39.16;;
41704;Laerm;861;48.808;9.006;2023-08-20T10:38:18;38.02;36.68;39.42;;
41704;Laerm;861;48.808;9.006;2023-08-20T10:40:59;38.05;36.73;39.23;;
41704;Laerm;861;48.808;9.006;2023-08-20T10:43:40;38.04;36.61;39.30;;
41704;Laerm;861;48.808;9.006;2023-08-20T10:46:21;38.07;36.77;39.36;;
41704;Laerm;861;48.808;9.006;2023-08-20T10:48:53;38.09;36.73;39.40;;
41704;Laerm;861;48.808;9.006;2023-08-20T10:51:32;38.08;36.68;39.25;;
41704;Laerm;861;48.808;9.006;2023-08-20T10:56:58;38.09;36.73;39.24;;
41704;Laerm;861;48.808;9.006;2023-08-20T10:59:29;38.06;36.49;39.21;;
41704;Laerm;861;48.808;9.006;2023-08-20T11:01:59;38.07;36.75;39.22;;
41704;Laerm;861;48.808;9.006;2023-08-20T11:04:31;38.06;36.70;39.25;;
41704;Laerm;861;48.808;9.006;2023-08-20T11:07:02;38.05;36.77;39.26;;
41704;Laerm;861;48.808;9.006;2023-08-20T11:09:31;38.09;36.68;39.21;;
41704;Laerm;861;48.808;9.006;2023-08-20T11:11:59;38.12;36.75;39.32;;
41704;Laerm;861;48.808;9.006;2023-08-20T11:14:26;38.12;36.53;40.75;;
41704;Laerm;861;48.808;9.006;2023-08-20T11:16:53;38.08;36.86;39.45;;
41704;Laerm;861;48.808;9.006;2023-08-20T11:19:23;38.13;36.65;39.41;;
41704;Laerm;861;48.808;9.006;2023-08-20T11:21:51;38.17;36.83;39.43;;
41704;Laerm;861;48.808;9.006;2023-08-20T11:24:18;38.16;36.93;39.65;;
41704;Laerm;861;48.808;9.006;2023-08-20T11:26:46;38.15;36.79;39.27;;
41704;Laerm;861;48.808;9.006;2023-08-20T11:29:16;38.14;36.70;39.46;;
41704;Laerm;861;48.808;9.006;2023-08-20T11:31:49;38.19;36.74;39.49;;
41704;Laerm;861;48.808;9.006;2023-08-20T11:34:19;38.21;36.72;39.70;;
41704;Laerm;861;48.808;9.006;2023-08-20T11:36:45;38.20;36.92;39.62;;
41704;Laerm;861;48.808;9.006;2023-08-20T11:39:13;38.17;36.69;39.40;;
41704;Laerm;861;48.808;9.006;2023-08-20T11:41:43;38.18;36.65;39.44;;
41704;Laerm;861;48.808;9.006;2023-08-20T11:44:10;38.14;36.81;39.31;;
41704;Laerm;861;48.808;9.006;2023-08-20T11:46:44;38.17;36.71;39.28;;
41704;Laerm;861;48.808;9.006;2023-08-20T11:49:13;38.20;36.59;39.55;;
41704;Laerm;861;48.808;9.006;2023-08-20T11:51:50;38.19;37.00;39.46;;
41704;Laerm;861;48.808;9.006;2023-08-20T11:54:19;38.19;36.59;39.37;;
41704;Laerm;861;48.808;9.006;2023-08-20T11:56:51;38.18;36.76;39.31;;
41704;Laerm;861;48.808;9.006;2023-08-20T11:59:20;38.18;36.70;39.48;;
41704;Laerm;861;48.808;9.006;2023-08-20T12:01:56;38.22;36.70;39.62;;
41704;Laerm;861;48.808;9.006;2023-08-20T12:04:28;38.12;36.71;39.40;;
41704;Laerm;861;48.808;9.006;2023-08-20T12:07:15;38.08;36.79;39.67;;
41704;Laerm;861;48.808;9.006;2023-08-20T12:09:42;38.14;36.61;39.85;;
41704;Laerm;861;48.808;9.006;2023-08-20T12:12:09;38.14;36.48;39.30;;
41704;Laerm;861;48.808;9.006;2023-08-20T12:14:37;38.16;36.72;39.54;;
41704;Laerm;861;48.808;9.006;2023-08-20T12:17:05;38.11;36.70;39.49;;
41704;Laerm;861;48.808;9.006;2023-08-20T12:19:32;38.07;36.72;39.51;;
41704;Laerm;861;48.808;9.006;2023-08-20T12:21:58;38.09;36.63;39.49;;
41704;Laerm;861;48.808;9.006;2023-08-20T12:24:25;38.12;36.55;39.31;;
41704;Laerm;861;48.808;9.006;2023-08-20T12:26:52;38.17;36.56;39.36;;
41704;Laerm;861;48.808;9.006;2023-08-20T12:29:19;38.11;36.50;39.43;;
41704;Laerm;861;48.808;9.006;2023-08-20T12:31:46;38.14;36.61;39.39;;
41704;Laerm;861;48.808;9.006;2023-08-20T12:34:13;38.19;36.98;39.65;;
41704;Laerm;861;48.808;9.006;2023-08-20T12:36:39;38.18;36.76;39.45;;
41704;Laerm;861;48.808;9.006;2023-08-20T12:39:06;38.11;36.76;39.36;;
41704;Laerm;861;48.808;9.006;2023-08-20T12:41:33;38.11;36.82;39.47;;
41704;Laerm;861;48.808;9.006;2023-08-20T12:44:02;38.05;36.56;39.36;;
41704;Laerm;861;48.808;9.006;2023-08-20T12:46:29;38.09;36.72;39.33;;
41704;Laerm;861;48.808;9.006;2023-08-20T12:48:56;38.05;36.73;39.39;;
41704;Laerm;861;48.808;9.006;2023-08-20T12:51:22;37.98;36.63;39.24;;
41704;Laerm;861;48.808;9.006;2023-08-20T12:53:49;38.02;36.38;40.06;;
41704;Laerm;861;48.808;9.006;2023-08-20T12:56:16;38.00;36.74;39.21;;
41704;Laerm;861;48.808;9.006;2023-08-20T12:58:43;38.01;36.56;39.47;;
41704;Laerm;861;48.808;9.006;2023-08-20T13:01:10;37.97;36.69;39.13;;
41704;Laerm;861;48.808;9.006;2023-08-20T13:03:37;37.96;36.70;39.21;;
41704;Laerm;861;48.808;9.006;2023-08-20T13:06:05;38.05;36.73;39.41;;
41704;Laerm;861;48.808;9.006;2023-08-20T13:08:32;38.04;36.82;39.69;;
41704;Laerm;861;48.808;9.006;2023-08-20T13:11:02;38.05;36.45;39.32;;
41704;Laerm;861;48.808;9.006;2023-08-20T13:13:33;38.11;36.75;42.52;;
41704;Laerm;861;48.808;9.006;2023-08-20T13:16:02;37.94;36.65;39.31;;
41704;Laerm;861;48.808;9.006;2023-08-20T13:18:29;37.92;36.41;39.37;;
41704;Laerm;861;48.808;9.006;2023-08-20T13:20:56;37.87;36.42;39.36;;
41704;Laerm;861;48.808;9.006;2023-08-20T13:23:23;37.93;36.56;39.21;;
41704;Laerm;861;48.808;9.006;2023-08-20T13:25:50;37.93;36.51;39.22;;
41704;Laerm;861;48.808;9.006;2023-08-20T13:28:17;37.98;36.51;39.32;;
41704;Laerm;861;48.808;9.006;2023-08-20T13:30:44;37.97;36.71;39.41;;
41704;Laerm;861;48.808;9.006;2023-08-20T13:33:12;37.93;36.29;39.11;;
41704;Laerm;861;48.808;9.006;2023-08-20T13:35:40;37.89;36.43;39.37;;
41704;Laerm;861;48.808;9.006;2023-08-20T13:38:07;37.83;36.48;39.11;;
41704;Laerm;861;48.808;9.006;2023-08-20T13:40:34;37.93;36.41;39.20;;
41704;Laerm;861;48.808;9.006;2023-08-20T13:43:00;37.85;36.50;39.24;;
41704;Laerm;861;48.808;9.006;2023-08-20T13:45:27;37.89;36.41;39.10;;
41704;Laerm;861;48.808;9.006;2023-08-20T13:47:53;37.91;36.54;39.12;;
41704;Laerm;861;48.808;9.006;2023-08-20T13:50:20;37.93;36.53;39.28;;
41704;Laerm;861;48.808;9.006;2023-08-20T13:52:47;37.87;36.56;41.38;;
41704;Laerm;861;48.808;9.006;2023-08-20T13:55:13;37.89;36.47;39.40;;
41704;Laerm;861;48.808;9.006;2023-08-20T13:57:40;37.84;36.49;39.17;;
41704;Laerm;861;48.808;9.006;2023-08-20T14:00:07;37.85;36.10;39.17;;
41704;Laerm;861;48.808;9.006;2023-08-20T14:02:36;37.80;36.45;39.11;;
41704;Laerm;861;48.808;9.006;2023-08-20T14:05:03;37.70;36.15;38.95;;
41704;Laerm;861;48.808;9.006;2023-08-20T14:07:31;37.73;36.22;39.00;;
41704;Laerm;861;48.808;9.006;2023-08-20T14:09:59;37.81;36.31;44.81;;
41704;Laerm;861;48.808;9.006;2023-08-20T14:12:26;37.71;36.23;39.27;;
41704;Laerm;861;48.808;9.006;2023-08-20T14:14:52;37.72;36.23;39.04;;
41704;Laerm;861;48.808;9.006;2023-08-20T14:17:19;37.67;36.05;38.99;;
41704;Laerm;861;48.808;9.006;2023-08-20T14:19:45;37.74;36.31;39.16;;
41704;Laerm;861;48.808;9.006;2023-08-20T14:22:12;37.77;36.50;39.06;;
41704;Laerm;861;48.808;9.006;2023-08-20T14:24:38;37.73;36.12;39.24;;
41704;Laerm;861;48.808;9.006;2023-08-20T14:27:05;37.67;36.32;38.84;;